createdAt,value
2018-12-12T00:02:18.223Z,97645.22
2018-12-12T00:04:47.128Z,97652.23
2018-12-12T00:07:15.975Z,97650.57
2018-12-12T00:09:44.835Z,97655.35
2018-12-12T00:12:13.680Z,97652.18
2018-12-12T00:14:42.581Z,97653.98
2018-12-12T00:17:11.427Z,97653.50
2018-12-12T00:19:40.331Z,97654.25
2018-12-12T00:22:09.193Z,97648.18
2018-12-12T00:24:38.073Z,97644.62
2018-12-12T00:27:06.964Z,97651.06
2018-12-12T00:29:35.896Z,97656.21
2018-12-12T00:32:04.768Z,97653.70
2018-12-12T00:34:33.686Z,97651.35
2018-12-12T00:37:02.711Z,97653.87
2018-12-12T00:39:31.599Z,97653.52
2018-12-12T00:42:00.473Z,97647.44
2018-12-12T00:44:29.365Z,97653.31
2018-12-12T00:46:58.675Z,97649.03
2018-12-12T00:49:27.565Z,97656.13
2018-12-12T00:51:56.748Z,97653.50
2018-12-12T00:54:26.111Z,97656.50
2018-12-12T00:56:55.030Z,97649.37
2018-12-12T00:59:23.991Z,97649.11
2018-12-12T01:01:52.856Z,97654.99
2018-12-12T01:04:21.720Z,97644.91
2018-12-12T01:06:50.616Z,97645.91
2018-12-12T01:09:19.543Z,97646.95
2018-12-12T01:11:53.809Z,97651.43
2018-12-12T01:14:22.678Z,97658.63
2018-12-12T01:16:51.554Z,97654.05
2018-12-12T01:19:20.453Z,97667.45
2018-12-12T01:21:49.366Z,97662.85
2018-12-12T01:24:18.265Z,97664.72
2018-12-12T01:26:47.156Z,97659.97
2018-12-12T01:29:16.077Z,97665.80
2018-12-12T01:31:45.250Z,97665.08
2018-12-12T01:34:14.138Z,97663.03
2018-12-12T01:36:43.041Z,97651.27
2018-12-12T01:39:11.959Z,97651.34
2018-12-12T01:41:41.251Z,97662.27
2018-12-12T01:44:10.149Z,97655.80
2018-12-12T01:46:39.024Z,97660.56
2018-12-12T01:49:08.463Z,97655.45
2018-12-12T01:51:37.306Z,97654.34
2018-12-12T01:54:06.196Z,97663.94
2018-12-12T01:56:35.109Z,97665.92
2018-12-12T01:59:04.516Z,97658.25
2018-12-12T02:01:33.429Z,97662.10
2018-12-12T02:04:02.299Z,97669.59
2018-12-12T02:06:31.187Z,97665.28
2018-12-12T02:09:00.079Z,97671.45
2018-12-12T02:11:29.051Z,97666.50
2018-12-12T02:13:57.941Z,97667.48
2018-12-12T02:16:26.827Z,97665.47
2018-12-12T02:18:56.239Z,97662.56
2018-12-12T02:21:25.229Z,97660.42
2018-12-12T02:23:54.326Z,97660.42
2018-12-12T02:26:23.238Z,97667.14
2018-12-12T02:28:52.137Z,97666.13
2018-12-12T02:31:21.001Z,97670.47
2018-12-12T02:33:49.894Z,97663.88
2018-12-12T02:36:19.068Z,97656.22
2018-12-12T02:38:47.952Z,97653.05
2018-12-12T02:41:16.868Z,97658.28
2018-12-12T02:43:45.756Z,97659.38
2018-12-12T02:46:14.640Z,97658.09
2018-12-12T02:48:43.952Z,97658.09
2018-12-12T02:51:12.836Z,97651.53
2018-12-12T02:53:41.725Z,97652.18
2018-12-12T02:56:10.922Z,97654.49
2018-12-12T02:58:39.806Z,97648.95
2018-12-12T03:01:08.703Z,97648.24
2018-12-12T03:03:37.588Z,97653.74
2018-12-12T03:06:06.483Z,97654.89
2018-12-12T03:08:35.379Z,97647.50
2018-12-12T03:11:04.264Z,97653.66
2018-12-12T03:13:33.587Z,97654.22
2018-12-12T03:16:02.807Z,97656.64
2018-12-12T03:18:31.818Z,97646.83
2018-12-12T03:21:00.713Z,97646.94
2018-12-12T03:23:29.563Z,97647.20
2018-12-12T03:25:58.910Z,97653.58
2018-12-12T03:28:27.796Z,97654.42
2018-12-12T03:30:56.691Z,97653.47
2018-12-12T03:33:25.878Z,97652.36
2018-12-12T03:35:54.819Z,97650.00
2018-12-12T03:38:23.706Z,97649.78
2018-12-12T03:40:53.019Z,97651.53
2018-12-12T03:43:21.894Z,97648.76
2018-12-12T03:45:50.771Z,97650.84
2018-12-12T03:48:21.788Z,97651.11
2018-12-12T03:50:51.007Z,97646.63
2018-12-12T03:53:19.861Z,97650.82
2018-12-12T03:55:48.999Z,97661.14
2018-12-12T03:58:18.655Z,97659.34
2018-12-12T04:00:47.496Z,97661.21
2018-12-12T04:03:16.352Z,97659.09
2018-12-12T04:05:46.022Z,97662.52
2018-12-12T04:08:14.880Z,97655.73
2018-12-12T04:10:43.767Z,97663.11
2018-12-12T04:13:12.794Z,97667.78
2018-12-12T04:15:41.680Z,97664.31
2018-12-12T04:18:10.527Z,97667.96
2018-12-12T04:20:39.365Z,97667.21
2018-12-12T04:23:08.459Z,97668.03
2018-12-12T04:25:37.710Z,97667.86
2018-12-12T04:28:06.544Z,97663.94
2018-12-12T04:30:35.386Z,97655.80
2018-12-12T04:33:04.635Z,97656.93
2018-12-12T04:35:33.448Z,97664.70
2018-12-12T04:38:02.300Z,97663.54
2018-12-12T04:40:31.451Z,97655.70
2018-12-12T04:43:00.304Z,97656.57
2018-12-12T04:45:29.133Z,97662.16
2018-12-12T04:47:58.300Z,97655.55
2018-12-12T04:50:27.384Z,97654.42
2018-12-12T04:52:56.383Z,97657.39
2018-12-12T04:55:25.267Z,97660.12
2018-12-12T04:57:54.607Z,97657.88
2018-12-12T05:00:23.462Z,97665.72
2018-12-12T05:02:52.931Z,97661.35
2018-12-12T05:05:21.866Z,97659.37
2018-12-12T05:07:50.927Z,97663.55
2018-12-12T05:10:19.774Z,97667.50
2018-12-12T05:12:48.616Z,97664.69
2018-12-12T05:15:17.454Z,97669.16
2018-12-12T05:17:46.310Z,97675.98
2018-12-12T05:20:15.391Z,97673.57
2018-12-12T05:22:44.228Z,97675.06
2018-12-12T05:25:13.084Z,97674.22
2018-12-12T05:27:41.901Z,97680.91
2018-12-12T05:30:10.752Z,97669.54
2018-12-12T05:32:39.580Z,97673.10
2018-12-12T05:35:08.731Z,97672.71
2018-12-12T05:37:37.570Z,97660.66
2018-12-12T05:40:07.544Z,97669.61
2018-12-12T05:42:36.630Z,97673.27
2018-12-12T05:45:06.592Z,97674.66
2018-12-12T05:47:35.416Z,97668.97
2018-12-12T05:50:04.871Z,97671.22
2018-12-12T05:52:33.753Z,97669.36
2018-12-12T05:55:02.835Z,97679.07
2018-12-12T05:57:31.664Z,97673.38
2018-12-12T06:00:00.543Z,97672.64
2018-12-12T06:02:29.454Z,97672.08
2018-12-12T06:04:58.316Z,97674.79
2018-12-12T06:07:27.193Z,97677.78
2018-12-12T06:09:56.263Z,97675.90
2018-12-12T06:12:25.130Z,97678.89
2018-12-12T06:14:54.235Z,97673.64
2018-12-12T06:17:23.163Z,97668.14
2018-12-12T06:19:52.499Z,97683.92
2018-12-12T06:22:21.839Z,97679.55
2018-12-12T06:24:51.094Z,97678.71
2018-12-12T06:27:19.979Z,97687.29
2018-12-12T06:29:48.841Z,97684.21
2018-12-12T06:32:17.719Z,97680.91
2018-12-12T06:34:46.655Z,97683.19
2018-12-12T06:37:15.608Z,97685.14
2018-12-12T06:39:44.559Z,97685.25
2018-12-12T06:42:13.443Z,97682.80
2018-12-12T06:44:42.388Z,97678.71
2018-12-12T06:47:11.327Z,97691.68
2018-12-12T06:49:40.234Z,97697.40
2018-12-12T06:52:09.819Z,97695.89
2018-12-12T06:54:38.757Z,97689.06
2018-12-12T06:57:08.276Z,97697.50
2018-12-12T06:59:37.274Z,97701.88
2018-12-12T07:02:06.612Z,97698.53
2018-12-12T07:04:35.507Z,97701.25
2018-12-12T07:07:06.054Z,97696.59
2018-12-12T07:09:34.892Z,97699.08
2018-12-12T07:12:03.984Z,97700.21
2018-12-12T07:14:32.768Z,97706.17
2018-12-12T07:17:01.663Z,97706.73
2018-12-12T07:19:31.169Z,97712.09
2018-12-12T07:22:00.221Z,97705.44
2018-12-12T07:24:29.285Z,97711.31
2018-12-12T07:26:58.148Z,97710.01
2018-12-12T07:29:27.378Z,97714.13
2018-12-12T07:31:56.643Z,97713.17
2018-12-12T07:34:25.496Z,97708.90
2018-12-12T07:36:54.327Z,97717.59
2018-12-12T07:39:23.197Z,97713.58
2018-12-12T07:41:52.041Z,97712.64
2018-12-12T07:44:21.303Z,97713.86
2018-12-12T07:46:50.550Z,97716.86
2018-12-12T07:49:19.854Z,97708.34
2018-12-12T07:51:48.692Z,97716.10
2018-12-12T07:54:17.531Z,97712.93
2018-12-12T07:56:46.390Z,97724.61
2018-12-12T07:59:15.215Z,97724.06
2018-12-12T08:01:44.098Z,97724.33
2018-12-12T08:04:13.059Z,97726.28
2018-12-12T08:06:41.966Z,97734.13
2018-12-12T08:09:11.257Z,97733.67
2018-12-12T08:11:40.159Z,97730.40
2018-12-12T08:14:09.049Z,97726.55
2018-12-12T08:16:37.957Z,97729.76
2018-12-12T08:19:06.813Z,97728.27
2018-12-12T08:21:35.643Z,97731.16
2018-12-12T08:24:04.867Z,97727.89
2018-12-12T08:26:33.826Z,97729.01
2018-12-12T08:29:03.189Z,97728.72
2018-12-12T08:31:32.168Z,97730.59
2018-12-12T08:34:01.083Z,97732.16
2018-12-12T08:36:37.105Z,97730.12
2018-12-12T08:39:07.869Z,97732.18
2018-12-12T08:41:36.737Z,97729.94
2018-12-12T08:44:05.991Z,97726.21
2018-12-12T08:46:35.130Z,97732.84
2018-12-12T08:49:04.355Z,97734.41
2018-12-12T08:51:33.179Z,97732.00
2018-12-12T08:54:02.523Z,97740.10
2018-12-12T08:56:31.495Z,97736.09
2018-12-12T08:59:00.368Z,97739.09
2018-12-12T09:01:30.215Z,97742.66
2018-12-12T09:03:59.091Z,97733.77
2018-12-12T09:07:05.204Z,97732.56
2018-12-12T09:09:34.071Z,97743.29
2018-12-12T09:12:03.114Z,97735.53
2018-12-12T09:14:32.016Z,97735.27
2018-12-12T09:17:00.923Z,97736.78
2018-12-12T09:19:29.823Z,97742.96
2018-12-12T09:21:58.951Z,97741.94
2018-12-12T09:24:27.864Z,97743.34
2018-12-12T09:26:56.780Z,97739.16
2018-12-12T09:29:25.698Z,97742.14
2018-12-12T09:31:55.049Z,97749.06
2018-12-12T09:34:24.046Z,97746.09
2018-12-12T09:36:52.909Z,97747.16
2018-12-12T09:39:21.805Z,97743.09
2018-12-12T09:41:50.729Z,97738.80
2018-12-12T09:44:19.859Z,97746.74
2018-12-12T09:46:48.731Z,97743.38
2018-12-12T09:49:17.548Z,97742.05
2018-12-12T09:51:46.367Z,97744.85
2018-12-12T09:54:15.226Z,97740.27
2018-12-12T09:56:44.139Z,97741.75
2018-12-12T09:59:12.967Z,97737.36
2018-12-12T10:01:41.780Z,97738.31
2018-12-12T10:04:10.843Z,97729.24
2018-12-12T10:06:39.647Z,97740.77
2018-12-12T10:09:08.591Z,97733.75
2018-12-12T10:11:37.639Z,97740.30
2018-12-12T10:14:06.510Z,97743.66
2018-12-12T10:16:35.414Z,97735.70
2018-12-12T10:19:04.246Z,97732.89
2018-12-12T10:21:33.163Z,97730.19
2018-12-12T10:24:02.005Z,97735.50
2018-12-12T10:26:30.879Z,97738.20
2018-12-12T10:29:00.138Z,97728.48
2018-12-12T10:31:29.605Z,97734.56
2018-12-12T10:33:58.480Z,97725.68
2018-12-12T10:36:27.299Z,97727.38
2018-12-12T10:38:56.135Z,97725.50
2018-12-12T10:41:25.234Z,97723.55
2018-12-12T10:43:54.415Z,97723.82
2018-12-12T10:46:23.225Z,97720.82
2018-12-12T10:48:52.126Z,97722.59
2018-12-12T10:51:20.985Z,97716.89
2018-12-12T10:53:49.822Z,97720.92
2018-12-12T10:56:18.683Z,97720.82
2018-12-12T10:58:47.547Z,97719.79
2018-12-12T11:01:21.635Z,97718.39
2018-12-12T11:03:50.505Z,97713.42
2018-12-12T11:06:19.401Z,97712.13
2018-12-12T11:08:48.271Z,97710.54
2018-12-12T11:11:17.165Z,97712.22
2018-12-12T11:13:46.852Z,97703.62
2018-12-12T11:16:15.928Z,97704.94
2018-12-12T11:18:44.820Z,97709.69
2018-12-12T11:21:14.146Z,97698.17
2018-12-12T11:23:43.037Z,97706.69
2018-12-12T11:26:11.939Z,97702.29
2018-12-12T11:28:40.789Z,97697.42
2018-12-12T11:31:09.668Z,97695.55
2018-12-12T11:33:38.478Z,97701.52
2018-12-12T11:36:07.355Z,97692.45
2018-12-12T11:38:36.255Z,97689.56
2018-12-12T11:41:05.558Z,97681.53
2018-12-12T11:43:34.467Z,97694.34
2018-12-12T11:46:03.347Z,97687.41
2018-12-12T11:48:32.271Z,97692.66
2018-12-12T11:51:01.204Z,97695.09
2018-12-12T11:53:30.120Z,97693.31
2018-12-12T11:55:59.083Z,97691.80
2018-12-12T11:58:27.960Z,97685.80
2018-12-12T12:00:56.912Z,97684.28
2018-12-12T12:03:26.011Z,97677.45
2018-12-12T12:05:54.827Z,97681.29
2018-12-12T12:08:24.195Z,97683.55
2018-12-12T12:10:53.104Z,97678.33
2018-12-12T12:13:22.259Z,97678.59
2018-12-12T12:15:51.736Z,97677.39
2018-12-12T12:18:20.624Z,97679.55
2018-12-12T12:20:49.510Z,97679.45
2018-12-12T12:23:18.415Z,97674.77
2018-12-12T12:25:47.402Z,97674.27
2018-12-12T12:28:16.259Z,97668.09
2018-12-12T12:30:45.079Z,97665.02
2018-12-12T12:33:13.971Z,97669.05
2018-12-12T12:35:42.862Z,97668.97
2018-12-12T12:38:11.836Z,97668.40
2018-12-12T12:40:40.937Z,97669.81
2018-12-12T12:43:10.099Z,97666.41
2018-12-12T12:45:39.316Z,97657.35
2018-12-12T12:48:08.540Z,97665.45
2018-12-12T12:50:37.451Z,97663.77
2018-12-12T12:53:06.310Z,97664.73
2018-12-12T12:55:35.174Z,97661.27
2018-12-12T12:58:04.282Z,97659.28
2018-12-12T13:00:33.078Z,97661.44
2018-12-12T13:03:01.904Z,97656.74
2018-12-12T13:05:31.239Z,97655.63
2018-12-12T13:08:00.049Z,97654.88
2018-12-12T13:10:29.346Z,97649.77
2018-12-12T13:12:58.538Z,97653.22
2018-12-12T13:15:28.156Z,97649.22
2018-12-12T13:17:56.995Z,97646.69
2018-12-12T13:20:26.049Z,97643.89
2018-12-12T13:22:54.897Z,97644.93
2018-12-12T13:25:23.722Z,97647.65
2018-12-12T13:27:52.545Z,97643.81
2018-12-12T13:30:21.321Z,97640.16
2018-12-12T13:32:50.131Z,97642.48
2018-12-12T13:35:19.347Z,97639.84
2018-12-12T13:37:48.205Z,97633.86
2018-12-12T13:40:16.989Z,97635.38
2018-12-12T13:42:45.786Z,97635.27
2018-12-12T13:45:14.607Z,97627.69
2018-12-12T13:47:43.813Z,97628.42
2018-12-12T13:50:12.903Z,97630.67
2018-12-12T13:52:41.703Z,97626.67
2018-12-12T13:55:10.805Z,97626.12
2018-12-12T13:57:39.590Z,97629.31
2018-12-12T14:00:09.126Z,97628.34
2018-12-12T14:02:37.912Z,97634.41
2018-12-12T14:05:07.260Z,97630.97
2018-12-12T14:07:36.093Z,97635.23
2018-12-12T14:10:05.715Z,97630.77
2018-12-12T14:12:34.751Z,97633.78
2018-12-12T14:15:04.449Z,97631.63
2018-12-12T14:17:33.296Z,97630.72
2018-12-12T14:20:02.137Z,97632.48
2018-12-12T14:22:30.979Z,97631.53
2018-12-12T14:25:00.299Z,97639.58
2018-12-12T14:27:29.159Z,97636.31
2018-12-12T14:29:58.364Z,97629.61
2018-12-12T14:32:27.310Z,97637.48
2018-12-12T14:34:56.181Z,97638.96
2018-12-12T14:37:25.021Z,97643.09
2018-12-12T14:39:53.823Z,97636.44
2018-12-12T14:42:22.641Z,97630.28
2018-12-12T14:44:51.464Z,97641.04
2018-12-12T14:47:20.240Z,97643.58
2018-12-12T14:49:49.300Z,97645.34
2018-12-12T14:52:18.362Z,97634.76
2018-12-12T14:54:47.176Z,97643.16
2018-12-12T14:57:15.983Z,97638.09
2018-12-12T14:59:45.030Z,97639.88
2018-12-12T15:02:13.979Z,97632.11
2018-12-12T15:04:42.779Z,97634.83
2018-12-12T15:07:11.541Z,97635.67
2018-12-12T15:09:40.429Z,97638.39
2018-12-12T15:12:09.313Z,97628.84
2018-12-12T15:14:38.137Z,97641.43
2018-12-12T15:17:06.996Z,97641.14
2018-12-12T15:19:35.794Z,97636.93
2018-12-12T15:22:05.409Z,97631.16
2018-12-12T15:24:35.491Z,97639.58
2018-12-12T15:27:05.078Z,97632.48
2018-12-12T15:29:33.946Z,97635.29
2018-12-12T15:32:03.411Z,97639.05
2018-12-12T15:34:42.334Z,97632.22
2018-12-12T15:37:15.072Z,97630.52
2018-12-12T15:39:50.208Z,97629.03
2018-12-12T15:42:23.900Z,97620.72
2018-12-12T15:44:58.084Z,97626.61
2018-12-12T15:47:31.208Z,97633.08
2018-12-12T15:50:15.035Z,97626.25
2018-12-12T15:52:43.869Z,97627.47
2018-12-12T15:55:12.691Z,97627.66
2018-12-12T15:57:41.490Z,97623.36
2018-12-12T16:00:10.789Z,97623.58
2018-12-12T16:02:40.109Z,97625.83
2018-12-12T16:05:08.879Z,97628.73
2018-12-12T16:07:37.711Z,97617.59
2018-12-12T16:10:07.574Z,97624.30
2018-12-12T16:12:36.410Z,97624.55
2018-12-12T16:15:05.979Z,97621.38
2018-12-12T16:17:35.137Z,97623.34
2018-12-12T16:20:04.887Z,97618.84
2018-12-12T16:22:33.678Z,97622.75
2018-12-12T16:25:02.999Z,97624.65
2018-12-12T16:27:32.215Z,97622.50
2018-12-12T16:30:01.417Z,97617.92
2018-12-12T16:32:30.301Z,97616.09
2018-12-12T16:34:59.094Z,97616.24
2018-12-12T16:37:29.672Z,97615.41
2018-12-12T16:39:58.521Z,97615.95
2018-12-12T16:42:28.012Z,97615.48
2018-12-12T16:44:56.866Z,97617.45
2018-12-12T16:47:25.676Z,97617.88
2018-12-12T16:49:54.568Z,97621.11
2018-12-12T16:52:23.977Z,97614.23
2018-12-12T16:54:52.830Z,97621.07
2018-12-12T16:57:21.616Z,97611.98
2018-12-12T16:59:50.613Z,97619.11
2018-12-12T17:02:19.526Z,97610.86
2018-12-12T17:04:48.342Z,97612.66
2018-12-12T17:07:17.772Z,97612.47
2018-12-12T17:09:46.813Z,97609.77
2018-12-12T17:12:15.646Z,97619.66
2018-12-12T17:14:44.575Z,97604.61
2018-12-12T17:17:13.378Z,97612.56
2018-12-12T17:19:42.212Z,97614.42
2018-12-12T17:22:11.053Z,97615.18
2018-12-12T17:24:39.861Z,97608.63
2018-12-12T17:27:09.152Z,97613.20
2018-12-12T17:29:38.019Z,97609.38
2018-12-12T17:32:07.077Z,97614.06
2018-12-12T17:34:36.313Z,97608.09
2018-12-12T17:37:05.563Z,97610.23
2018-12-12T17:39:34.390Z,97603.95
2018-12-12T17:42:03.291Z,97612.95
2018-12-12T17:44:32.107Z,97607.13
2018-12-12T17:47:00.915Z,97605.84
2018-12-12T17:49:29.749Z,97611.52
2018-12-12T17:51:58.997Z,97606.56
2018-12-12T17:54:27.797Z,97621.53
2018-12-12T17:56:56.601Z,97616.29
2018-12-12T17:59:25.461Z,97611.44
2018-12-12T18:01:54.529Z,97608.73
2018-12-12T18:04:23.345Z,97609.95
2018-12-12T18:06:52.170Z,97610.13
2018-12-12T18:09:21.036Z,97610.31
2018-12-12T18:11:49.861Z,97604.80
2018-12-12T18:14:18.685Z,97602.55
2018-12-12T18:16:47.874Z,97610.13
2018-12-12T18:19:16.693Z,97602.64
2018-12-12T18:21:45.489Z,97604.13
2018-12-12T18:24:14.275Z,97601.84
2018-12-12T18:26:43.803Z,97605.67
2018-12-12T18:29:12.878Z,97599.41
2018-12-12T18:31:41.710Z,97598.28
2018-12-12T18:34:10.509Z,97601.64
2018-12-12T18:36:39.309Z,97599.73
2018-12-12T18:39:08.685Z,97596.84
2018-12-12T18:41:37.531Z,97591.87
2018-12-12T18:44:06.375Z,97595.75
2018-12-12T18:46:35.242Z,97597.39
2018-12-12T18:49:04.495Z,97594.77
2018-12-12T18:51:33.742Z,97594.97
2018-12-12T18:54:02.608Z,97595.73
2018-12-12T18:56:31.407Z,97599.94
2018-12-12T18:59:02.103Z,97593.48
2018-12-12T19:01:31.673Z,97594.14
2018-12-12T19:04:00.538Z,97589.76
2018-12-12T19:06:29.367Z,97585.05
2018-12-12T19:08:58.173Z,97594.61
2018-12-12T19:11:26.981Z,97593.96
2018-12-12T19:13:55.797Z,97584.21
2018-12-12T19:16:24.633Z,97589.17
2018-12-12T19:18:53.541Z,97589.92
2018-12-12T19:21:22.359Z,97586.83
2018-12-12T19:23:51.253Z,97588.98
2018-12-12T19:26:20.037Z,97591.16
2018-12-12T19:28:48.873Z,97593.02
2018-12-12T19:31:17.697Z,97590.76
2018-12-12T19:33:46.595Z,97594.78
2018-12-12T19:36:15.418Z,97590.13
2018-12-12T19:38:45.201Z,97592.19
2018-12-12T19:41:14.150Z,97592.73
2018-12-12T19:43:43.189Z,97592.36
2018-12-12T19:46:12.169Z,97602.64
2018-12-12T19:48:44.321Z,97599.47
2018-12-12T19:51:13.117Z,97599.67
2018-12-12T19:53:44.209Z,97592.75
2018-12-12T19:56:12.969Z,97592.00
2018-12-12T19:58:41.776Z,97594.43
2018-12-12T20:01:10.606Z,97595.53
2018-12-12T20:03:40.469Z,97591.59
2018-12-12T20:06:09.652Z,97592.28
2018-12-12T20:08:39.016Z,97589.94
2018-12-12T20:11:08.572Z,97588.82
2018-12-12T20:13:37.420Z,97592.55
2018-12-12T20:16:06.605Z,97597.14
2018-12-12T20:18:35.404Z,97589.55
2018-12-12T20:21:04.596Z,97591.41
2018-12-12T20:23:33.740Z,97588.79
2018-12-12T20:26:02.538Z,97591.69
2018-12-12T20:28:31.345Z,97592.92
2018-12-12T20:31:00.181Z,97586.13
2018-12-12T20:33:29.279Z,97577.94
2018-12-12T20:35:58.044Z,97580.58
2018-12-12T20:38:30.150Z,97588.91
2018-12-12T20:40:59.162Z,97581.08
2018-12-12T20:43:28.043Z,97576.91
2018-12-12T20:45:57.037Z,97577.33
2018-12-12T20:48:25.813Z,97584.52
2018-12-12T20:50:55.179Z,97571.42
2018-12-12T20:53:23.975Z,97578.91
2018-12-12T20:55:52.806Z,97569.19
2018-12-12T20:58:21.669Z,97580.04
2018-12-12T21:00:50.461Z,97574.88
2018-12-12T21:03:19.281Z,97577.70
2018-12-12T21:05:54.337Z,97570.50
2018-12-12T21:08:36.201Z,97572.33
2018-12-12T21:11:05.042Z,97572.89
2018-12-12T21:13:33.868Z,97571.59
2018-12-12T21:16:02.665Z,97570.00
2018-12-12T21:18:31.473Z,97565.23
2018-12-12T21:21:00.288Z,97561.68
2018-12-12T21:23:29.118Z,97562.98
2018-12-12T21:25:58.397Z,97560.17
2018-12-12T21:28:27.190Z,97561.03
2018-12-12T21:30:56.041Z,97558.02
2018-12-12T21:33:25.247Z,97554.20
2018-12-12T21:35:54.034Z,97551.40
2018-12-12T21:38:22.838Z,97560.19
2018-12-12T21:40:52.047Z,97548.41
2018-12-12T21:43:20.834Z,97541.00
2018-12-12T21:45:52.656Z,97545.42
2018-12-12T21:48:21.474Z,97552.16
2018-12-12T21:50:50.271Z,97549.08
2018-12-12T21:53:19.069Z,97546.26
2018-12-12T21:55:47.882Z,97540.27
2018-12-12T21:58:16.933Z,97537.84
2018-12-12T22:00:45.988Z,97533.42
2018-12-12T22:03:15.350Z,97543.73
2018-12-12T22:05:44.871Z,97543.94
2018-12-12T22:08:13.657Z,97544.88
2018-12-12T22:10:42.694Z,97542.98
2018-12-12T22:13:11.474Z,97541.78
2018-12-12T22:15:40.282Z,97542.72
2018-12-12T22:18:09.038Z,97536.70
2018-12-12T22:20:37.893Z,97537.55
2018-12-12T22:23:07.073Z,97526.42
2018-12-12T22:25:35.884Z,97528.35
2018-12-12T22:28:04.682Z,97526.15
2018-12-12T22:30:33.549Z,97528.58
2018-12-12T22:33:02.362Z,97527.27
2018-12-12T22:35:31.174Z,97529.14
2018-12-12T22:37:59.985Z,97524.66
2018-12-12T22:40:28.770Z,97528.97
2018-12-12T22:42:57.619Z,97525.03
2018-12-12T22:45:26.422Z,97521.58
2018-12-12T22:47:55.625Z,97522.59
2018-12-12T22:50:24.417Z,97518.59
2018-12-12T22:52:53.611Z,97516.54
2018-12-12T22:55:22.441Z,97520.34
2018-12-12T22:57:51.655Z,97511.55
2018-12-12T23:00:26.062Z,97504.44
2018-12-12T23:02:55.101Z,97507.17
2018-12-12T23:05:24.302Z,97507.13
2018-12-12T23:07:53.081Z,97505.16
2018-12-12T23:10:21.901Z,97497.97
2018-12-12T23:12:50.741Z,97498.88
2018-12-12T23:15:19.546Z,97500.69
2018-12-12T23:17:48.364Z,97496.76
2018-12-12T23:20:17.173Z,97494.41
2018-12-12T23:22:46.245Z,97489.70
2018-12-12T23:25:15.073Z,97490.31
2018-12-12T23:27:43.905Z,97490.55
2018-12-12T23:30:12.722Z,97495.25
2018-12-12T23:32:41.545Z,97492.46
2018-12-12T23:35:10.601Z,97491.79
2018-12-12T23:37:39.405Z,97497.09
2018-12-12T23:40:08.653Z,97482.79
2018-12-12T23:42:37.475Z,97481.88
2018-12-12T23:45:06.909Z,97483.73
2018-12-12T23:47:35.718Z,97481.68
2018-12-12T23:50:05.467Z,97478.39
2018-12-12T23:52:34.849Z,97477.55
2018-12-12T23:55:04.058Z,97472.31
2018-12-12T23:57:32.848Z,97467.58
